Time;durP1;ratioP1;P1;durP2;ratioP2;P2;SDS_P1;SDS_P2;PMS_P1;PMS_P2;Temp;Humidity;BMP_temperature;BMP_pressure;BME280_temperature;BME280_humidity;BME280_pressure;Samples;Min_cycle;Max_cycle;Signal;HPM_P1;HPM_P2
2022/05/06 00:02:14;;;;;;;2.70;2.10;;;10.20;97.20;10.10;101260.00;;;;4954904;28;116619;-66
2022/05/06 00:04:43;;;;;;;2.77;1.83;;;10.20;97.50;10.10;101249.00;;;;4956755;28;87860;-66
2022/05/06 00:07:11;;;;;;;2.47;1.97;;;10.20;97.80;10.00;101251.00;;;;4955930;28;87536;-66
2022/05/06 00:09:38;;;;;;;3.27;1.97;;;10.10;97.90;10.00;101267.00;;;;4956117;28;88998;-66
2022/05/06 00:12:04;;;;;;;1.80;1.50;;;10.00;97.90;9.90;101266.00;;;;4946673;28;102634;-66
2022/05/06 00:14:30;;;;;;;1.93;1.80;;;10.00;98.10;9.90;101266.00;;;;4956713;28;87822;-66
2022/05/06 00:16:56;;;;;;;3.47;2.17;;;10.00;98.40;10.00;101259.00;;;;4955500;28;107630;-66
2022/05/06 00:19:21;;;;;;;3.87;2.60;;;10.00;98.50;10.00;101266.00;;;;4955791;28;117997;-68
2022/05/06 00:21:47;;;;;;;5.30;2.53;;;10.00;98.80;10.00;101265.00;;;;4948408;28;87963;-66
2022/05/06 00:24:13;;;;;;;4.20;2.17;;;10.00;99.20;9.90;101264.00;;;;4936382;28;110749;-67
2022/05/06 00:26:38;;;;;;;2.83;2.03;;;10.00;99.10;9.90;101263.00;;;;4957103;28;107562;-66
2022/05/06 00:29:04;;;;;;;2.67;2.27;;;10.00;99.20;9.90;101267.00;;;;4955990;28;116650;-66
2022/05/06 00:31:30;;;;;;;1.87;1.77;;;10.00;99.30;10.00;101262.00;;;;4955622;28;118108;-66
2022/05/06 00:33:55;;;;;;;3.17;2.40;;;10.00;99.40;10.00;101267.00;;;;4955403;28;110378;-66
2022/05/06 00:36:21;;;;;;;3.80;2.50;;;10.00;99.40;10.10;101262.00;;;;4952615;28;87721;-67
2022/05/06 00:38:47;;;;;;;3.97;2.00;;;10.10;99.40;10.10;101260.00;;;;4935945;28;115996;-66
2022/05/06 00:41:12;;;;;;;4.93;2.53;;;10.10;99.60;10.10;101258.00;;;;4935407;28;117409;-67
2022/05/06 00:43:42;;;;;;;2.97;2.30;;;10.10;99.90;10.00;101255.00;;;;4936257;28;107487;-66
2022/05/06 00:46:17;;;;;;;3.17;2.30;;;10.10;99.90;10.00;101244.00;;;;4937998;28;87878;-66
2022/05/06 00:48:46;;;;;;;1.93;1.83;;;10.00;99.90;10.00;101252.00;;;;4954214;28;88491;-66
2022/05/06 00:51:13;;;;;;;2.90;2.13;;;10.00;99.90;10.00;101266.00;;;;4955254;28;88893;-66
2022/05/06 00:53:40;;;;;;;2.97;2.17;;;10.00;99.90;9.90;101254.00;;;;4956623;28;87593;-66
2022/05/06 00:56:10;;;;;;;3.17;2.23;;;10.00;99.90;9.90;101259.00;;;;4955510;28;87989;-66
2022/05/06 00:58:35;;;;;;;2.17;2.07;;;9.90;99.90;9.80;101258.00;;;;4936486;28;88147;-67
2022/05/06 01:01:03;;;;;;;2.70;2.03;;;9.90;99.90;9.70;101263.00;;;;4946159;28;115833;-66
2022/05/06 01:03:28;;;;;;;2.87;2.33;;;9.80;99.90;9.70;101268.00;;;;4956635;28;87930;-66
2022/05/06 01:05:54;;;;;;;2.63;1.93;;;9.80;99.90;9.60;101264.00;;;;4953241;28;91330;-66
2022/05/06 01:08:20;;;;;;;2.43;2.23;;;9.70;99.90;9.60;101272.00;;;;4939175;28;87424;-66
2022/05/06 01:10:47;;;;;;;2.87;1.87;;;9.70;99.90;9.60;101268.00;;;;4934822;28;114727;-66
2022/05/06 01:13:13;;;;;;;2.63;2.23;;;9.60;99.90;9.50;101270.00;;;;4933601;28;110188;-66
2022/05/06 01:15:39;;;;;;;4.70;3.07;;;9.60;99.90;9.30;101258.00;;;;4934968;28;109242;-66
2022/05/06 01:18:05;;;;;;;2.50;2.00;;;9.50;99.90;9.30;101275.00;;;;4936410;28;88832;-67
2022/05/06 01:20:38;;;;;;;3.67;2.30;;;9.40;99.90;9.20;101267.00;;;;4935188;28;111120;-67
2022/05/06 01:23:04;;;;;;;2.40;2.03;;;9.30;99.90;9.10;101268.00;;;;4933588;28;87933;-67
2022/05/06 01:25:30;;;;;;;2.70;1.90;;;9.30;99.90;9.00;101275.00;;;;4935926;28;88051;-66
2022/05/06 01:28:03;;;;;;;3.87;2.67;;;9.10;99.90;8.90;101270.00;;;;4946240;28;88574;-67
2022/05/06 01:30:36;;;;;;;5.83;2.27;;;9.00;99.90;8.80;101282.00;;;;4935989;28;87788;-67
2022/05/06 01:33:05;;;;;;;2.63;2.43;;;9.00;99.90;8.80;101276.00;;;;4950897;28;87261;-67
2022/05/06 01:35:57;;;;;;;2.50;2.30;;;8.90;99.90;8.80;101281.00;;;;4936163;28;87656;-67
2022/05/06 01:38:30;;;;;;;2.70;2.33;;;8.90;99.90;8.70;101285.00;;;;4925257;28;88193;-66
2022/05/06 01:41:03;;;;;;;3.87;2.03;;;8.80;99.90;8.70;101273.00;;;;4936377;28;89011;-66
2022/05/06 01:43:42;;;;;;;1.60;1.40;;;8.80;99.90;8.60;101276.00;;;;4950759;28;87683;-66
2022/05/06 01:46:14;;;;;;;2.17;1.97;;;8.70;99.90;8.60;101280.00;;;;4935752;28;87855;-66
2022/05/06 01:48:42;;;;;;;2.53;2.27;;;8.70;99.90;8.50;101292.00;;;;4944615;28;87864;-66
2022/05/06 01:51:15;;;;;;;7.63;2.57;;;8.60;99.90;8.50;101294.00;;;;4957805;28;110543;-66
2022/05/06 01:53:44;;;;;;;1.93;1.83;;;8.60;99.90;8.50;101282.00;;;;4958645;28;95992;-66
2022/05/06 01:56:11;;;;;;;2.57;2.27;;;8.60;99.90;8.50;101280.00;;;;4958074;28;108699;-66
2022/05/06 01:58:37;;;;;;;3.33;2.50;;;8.60;99.90;8.50;101286.00;;;;4950139;28;92060;-66
2022/05/06 02:01:03;;;;;;;1.77;1.23;;;8.50;99.90;8.40;101279.00;;;;4949464;28;111643;-66
2022/05/06 02:06:14;;;;;;;6.30;2.40;;;8.50;99.90;8.30;101285.00;;;;4951257;28;88669;-66
2022/05/06 02:08:40;;;;;;;2.57;2.37;;;8.40;99.90;8.20;101280.00;;;;4938577;28;105311;-66
2022/05/06 02:11:06;;;;;;;3.37;2.43;;;8.40;99.90;8.20;101277.00;;;;4944268;28;115847;-67
2022/05/06 02:13:33;;;;;;;3.93;2.03;;;8.30;99.90;8.20;101284.00;;;;4958727;28;87560;-67
2022/05/06 02:15:59;;;;;;;4.00;2.03;;;8.30;99.90;8.20;101276.00;;;;4958542;28;87838;-67
2022/05/06 02:18:26;;;;;;;1.80;1.70;;;8.30;99.90;8.10;101280.00;;;;4958100;28;88185;-66
2022/05/06 02:20:56;;;;;;;2.93;2.63;;;8.20;99.90;8.00;101289.00;;;;4957980;28;88045;-67
2022/05/06 02:23:22;;;;;;;2.97;2.77;;;8.20;99.90;8.00;101294.00;;;;4956977;28;87200;-67
2022/05/06 02:25:49;;;;;;;2.70;1.90;;;8.10;99.90;8.00;101287.00;;;;4944024;28;88333;-66
2022/05/06 02:28:14;;;;;;;3.47;2.63;;;8.10;99.90;7.90;101293.00;;;;4941799;28;106763;-67
2022/05/06 02:33:26;;;;;;;2.27;2.03;;;8.00;99.90;7.90;101298.00;;;;4957142;28;87918;-67
2022/05/06 02:35:53;;;;;;;3.20;2.47;;;8.00;99.90;7.90;101295.00;;;;4958226;28;87709;-66
2022/05/06 02:38:21;;;;;;;2.63;2.03;;;8.00;99.90;7.80;101289.00;;;;4957895;28;89083;-67
2022/05/06 02:40:47;;;;;;;2.60;2.20;;;8.00;99.90;7.80;101290.00;;;;4956510;28;88688;-67
2022/05/06 02:43:12;;;;;;;2.27;2.13;;;7.90;99.90;7.70;101287.00;;;;4957864;28;87925;-66
2022/05/06 02:45:38;;;;;;;2.67;2.17;;;7.90;99.90;7.70;101289.00;;;;4957576;28;108819;-67
2022/05/06 02:48:05;;;;;;;2.23;2.00;;;7.70;99.90;7.70;101300.00;;;;4957605;28;90189;-67
2022/05/06 02:50:30;;;;;;;2.20;2.00;;;7.80;99.90;7.60;101294.00;;;;4957477;28;109065;-67
2022/05/06 02:52:56;;;;;;;3.07;2.17;;;7.80;99.90;7.60;101293.00;;;;4953290;28;111126;-67
2022/05/06 02:55:23;;;;;;;4.53;2.60;;;7.70;99.90;7.60;101292.00;;;;4957252;28;96718;-66
2022/05/06 02:57:50;;;;;;;2.00;1.57;;;7.70;99.90;7.50;101291.00;;;;4957965;28;88218;-66
2022/05/06 03:00:16;;;;;;;2.97;1.93;;;7.70;99.90;7.50;101282.00;;;;4957389;28;87871;-66
2022/05/06 03:02:42;;;;;;;3.50;2.73;;;7.60;99.90;7.40;101290.00;;;;4955215;28;104017;-66
2022/05/06 03:05:09;;;;;;;4.37;2.30;;;7.60;99.90;7.40;101287.00;;;;4958002;28;87749;-66
2022/05/06 03:07:38;;;;;;;2.73;2.13;;;7.70;99.90;7.30;101290.00;;;;4957280;28;88376;-66
2022/05/06 03:10:04;;;;;;;2.93;2.30;;;7.50;99.90;7.30;101293.00;;;;4957413;28;89134;-66
2022/05/06 03:12:31;;;;;;;3.97;2.30;;;7.40;99.90;7.20;101293.00;;;;4948357;28;102388;-66
2022/05/06 03:14:58;;;;;;;4.47;2.93;;;7.40;99.90;7.20;101290.00;;;;4938554;28;88084;-66
2022/05/06 03:17:24;;;;;;;2.17;1.93;;;7.30;99.90;7.10;101293.00;;;;4936900;28;89095;-66
2022/05/06 03:20:08;;;;;;;3.93;2.43;;;7.30;99.90;7.10;101285.00;;;;4951713;28;106002;-67
2022/05/06 03:22:41;;;;;;;3.33;1.77;;;7.20;99.90;7.10;101288.00;;;;4943868;28;87852;-67
2022/05/06 03:25:07;;;;;;;3.03;2.13;;;7.20;99.90;7.10;101290.00;;;;4953149;28;87863;-66
2022/05/06 03:30:57;;;;;;;2.57;1.90;;;7.60;99.90;7.10;101289.00;;;;4935267;28;87800;-66
2022/05/06 03:33:24;;;;;;;2.47;2.20;;;7.30;99.90;7.10;101292.00;;;;4934041;28;87956;-67
2022/05/06 03:35:50;;;;;;;4.67;2.87;;;7.20;99.90;7.00;101299.00;;;;4938552;28;87689;-66
2022/05/06 03:38:16;;;;;;;3.80;1.97;;;7.10;99.90;6.90;101298.00;;;;4936939;28;116680;-66
2022/05/06 03:40:41;;;;;;;4.93;3.20;;;7.10;99.90;6.90;101301.00;;;;4937832;28;87898;-66
2022/05/06 03:43:07;;;;;;;2.87;2.67;;;7.00;99.90;6.80;101306.00;;;;4949032;28;87669;-67
2022/05/06 03:45:33;;;;;;;2.23;2.03;;;7.00;99.90;6.80;101306.00;;;;4946625;28;88752;-66
2022/05/06 03:47:59;;;;;;;2.73;1.90;;;6.90;99.90;6.90;101295.00;;;;4936570;28;88555;-66
2022/05/06 03:53:10;;;;;;;4.80;2.90;;;7.00;99.90;6.90;101308.00;;;;4936094;28;87655;-66
2022/05/06 03:55:35;;;;;;;3.67;2.90;;;7.00;99.90;6.90;101315.00;;;;4944853;28;108579;-66
2022/05/06 03:58:10;;;;;;;3.27;2.57;;;7.50;99.90;6.80;101307.00;;;;4956016;28;117850;-66
2022/05/06 04:00:35;;;;;;;5.37;2.43;;;7.10;99.90;6.90;101308.00;;;;4956527;28;115803;-67
2022/05/06 04:03:01;;;;;;;2.53;2.13;;;7.00;99.90;6.90;101316.00;;;;4955648;28;109464;-66
2022/05/06 04:05:27;;;;;;;6.10;3.00;;;7.00;99.90;7.00;101315.00;;;;4956803;28;87701;-66
2022/05/06 04:07:54;;;;;;;3.00;2.33;;;7.20;99.90;7.00;101322.00;;;;4956146;28;88943;-67
2022/05/06 04:10:20;;;;;;;4.07;2.63;;;7.10;99.90;7.00;101323.00;;;;4956650;28;88709;-67
2022/05/06 04:12:46;;;;;;;4.63;2.53;;;7.10;99.90;7.10;101318.00;;;;4939682;28;87761;-66
2022/05/06 04:15:13;;;;;;;9.43;2.60;;;7.50;99.90;7.10;101317.00;;;;4938208;28;87772;-67
2022/05/06 04:17:39;;;;;;;6.13;2.23;;;7.20;99.90;7.10;101329.00;;;;4936911;28;87984;-66
2022/05/06 04:25:34;;;;;;;3.53;3.03;;;7.30;99.90;7.20;101339.00;;;;4941153;28;87674;-66
2022/05/06 04:27:59;;;;;;;2.73;2.30;;;7.30;99.90;7.20;101338.00;;;;4955891;28;117508;-67
2022/05/06 04:30:25;;;;;;;2.33;1.90;;;7.10;99.90;7.20;101339.00;;;;4956625;28;93218;-66
2022/05/06 04:32:51;;;;;;;2.60;2.40;;;7.30;99.90;7.30;101345.00;;;;4956425;28;87968;-67
2022/05/06 04:35:16;;;;;;;2.97;2.53;;;7.40;99.90;7.40;101340.00;;;;4951168;28;107293;-66
2022/05/06 04:37:43;;;;;;;2.37;2.17;;;7.50;99.90;7.40;101351.00;;;;4936590;28;88375;-67
2022/05/06 04:40:09;;;;;;;3.03;2.53;;;7.60;99.90;7.50;101358.00;;;;4936444;28;87675;-66
2022/05/06 04:42:35;;;;;;;4.63;2.43;;;7.50;99.90;7.60;101365.00;;;;4937431;28;87870;-67
2022/05/06 04:45:01;;;;;;;2.93;2.27;;;7.60;99.90;7.70;101361.00;;;;4937834;28;108278;-66
2022/05/06 04:47:26;;;;;;;2.33;2.13;;;7.80;99.90;7.80;101366.00;;;;4955887;28;94295;-66
2022/05/06 04:49:52;;;;;;;2.97;2.57;;;7.80;99.90;7.90;101360.00;;;;4949091;28;87664;-66
2022/05/06 04:52:18;;;;;;;2.63;2.37;;;8.00;99.90;8.00;101377.00;;;;4935748;28;109180;-66
2022/05/06 04:54:44;;;;;;;3.37;2.70;;;8.10;99.90;8.10;101368.00;;;;4935566;28;108791;-67
2022/05/06 04:57:09;;;;;;;2.97;1.93;;;8.10;99.90;8.30;101367.00;;;;4954826;28;87989;-67
2022/05/06 04:59:35;;;;;;;2.87;2.60;;;8.30;99.90;8.40;101369.00;;;;4955835;28;88970;-67
2022/05/06 05:02:01;;;;;;;4.30;2.50;;;8.40;99.90;8.60;101375.00;;;;4952393;28;109427;-66
2022/05/06 05:04:27;;;;;;;3.37;2.40;;;8.60;99.90;8.80;101375.00;;;;4955931;28;87806;-66
2022/05/06 05:06:54;;;;;;;2.70;2.50;;;8.80;99.90;9.00;101377.00;;;;4939091;28;88686;-66
2022/05/06 05:09:20;;;;;;;3.63;2.23;;;9.00;99.90;9.20;101378.00;;;;4935757;28;100939;-66
2022/05/06 05:11:47;;;;;;;3.63;2.70;;;9.10;99.90;9.30;101384.00;;;;4936354;28;88010;-66
2022/05/06 05:14:14;;;;;;;3.13;2.60;;;9.30;99.90;9.50;101386.00;;;;4935665;28;87882;-67
2022/05/06 05:16:39;;;;;;;2.33;1.90;;;9.50;99.90;9.70;101389.00;;;;4936856;28;103725;-67
2022/05/06 05:19:05;;;;;;;2.83;2.30;;;9.60;99.90;9.90;101398.00;;;;4935823;28;87835;-67
2022/05/06 05:21:30;;;;;;;4.57;2.50;;;9.80;99.90;10.00;101393.00;;;;4934908;28;110773;-66
2022/05/06 05:23:56;;;;;;;4.60;2.63;;;10.00;99.90;10.20;101397.00;;;;4937633;28;108776;-67
2022/05/06 05:26:22;;;;;;;7.37;3.63;;;10.10;99.90;10.30;101396.00;;;;4949378;28;116579;-66
2022/05/06 05:28:47;;;;;;;3.53;2.27;;;10.30;99.90;10.50;101390.00;;;;4957962;28;117940;-66
2022/05/06 05:31:13;;;;;;;7.87;3.00;;;10.40;99.90;10.70;101397.00;;;;4958283;28;110460;-66
2022/05/06 05:33:39;;;;;;;2.87;2.27;;;10.60;99.90;10.80;101404.00;;;;4958517;28;109070;-66
2022/05/06 05:36:05;;;;;;;5.77;3.07;;;10.70;99.90;11.00;101403.00;;;;4949283;28;117646;-66
2022/05/06 05:38:30;;;;;;;5.37;2.77;;;10.90;99.90;11.20;101411.00;;;;4938969;28;106723;-66
2022/05/06 05:40:56;;;;;;;4.20;2.90;;;11.10;99.90;11.40;101411.00;;;;4938385;28;109452;-66
2022/05/06 05:48:53;;;;;;;4.33;3.20;;;11.70;99.90;12.10;101404.00;;;;4957821;28;88719;-67
2022/05/06 05:51:19;;;;;;;3.13;2.60;;;12.00;99.90;12.40;101417.00;;;;4958457;28;101594;-66
2022/05/06 05:53:44;;;;;;;2.80;2.53;;;12.20;99.90;12.60;101414.00;;;;4956379;28;109665;-66
2022/05/06 05:56:10;;;;;;;3.93;2.90;;;12.50;99.90;12.90;101405.00;;;;4956859;28;117420;-66
2022/05/06 05:58:36;;;;;;;4.47;3.37;;;12.70;99.90;13.20;101419.00;;;;4958611;28;88318;-67
2022/05/06 06:01:04;;;;;;;3.80;3.00;;;13.00;99.90;13.50;101416.00;;;;4959051;28;87927;-67
2022/05/06 06:03:33;;;;;;;4.73;3.60;;;13.30;99.90;13.80;101425.00;;;;4957084;28;87869;-66
2022/05/06 06:06:17;;;;;;;4.20;3.23;;;13.60;99.90;14.00;101419.00;;;;4957214;28;116239;-66
2022/05/06 06:08:43;;;;;;;7.43;3.83;;;13.80;99.80;14.20;101421.00;;;;4940453;28;88419;-66
2022/05/06 06:11:09;;;;;;;5.67;3.63;;;14.00;99.20;14.30;101419.00;;;;4954937;28;87626;-67
2022/05/06 06:13:34;;;;;;;8.90;3.77;;;14.10;98.70;14.50;101426.00;;;;4937715;28;108785;-66
2022/05/06 06:16:00;;;;;;;7.60;4.00;;;14.30;98.30;14.60;101424.00;;;;4937659;28;118209;-66
2022/05/06 06:18:29;;;;;;;6.28;4.18;;;14.40;97.60;14.70;101422.00;;;;4937888;28;116949;-67
2022/05/06 06:20:57;;;;;;;5.38;4.20;;;14.60;97.30;14.80;101431.00;;;;4938899;28;87881;-66
2022/05/06 06:23:24;;;;;;;15.57;4.60;;;14.70;96.60;14.90;101425.00;;;;4938464;28;87798;-66
2022/05/06 06:25:49;;;;;;;7.18;3.72;;;14.80;96.40;15.00;101433.00;;;;4942732;28;88324;-66
2022/05/06 06:28:16;;;;;;;4.05;3.35;;;14.80;96.30;15.20;101440.00;;;;4958673;28;87861;-66
2022/05/06 06:30:47;;;;;;;4.03;3.00;;;15.00;96.20;15.50;101437.00;;;;4958575;28;87410;-65
2022/05/06 06:33:14;;;;;;;7.60;3.45;;;15.30;95.90;15.80;101429.00;;;;4937979;28;107508;-66
2022/05/06 06:35:39;;;;;;;3.92;3.53;;;15.50;95.40;16.00;101436.00;;;;4940922;28;87881;-66
2022/05/06 06:38:06;;;;;;;8.57;3.95;;;15.80;94.70;16.10;101436.00;;;;4956461;28;116889;-66
2022/05/06 06:40:32;;;;;;;5.95;4.22;;;16.00;93.90;16.20;101444.00;;;;4958096;28;87853;-65
2022/05/06 06:43:06;;;;;;;6.53;3.90;;;16.10;92.80;16.20;101438.00;;;;4956174;28;87677;-66
2022/05/06 06:45:32;;;;;;;5.32;3.67;;;16.10;92.40;16.40;101445.00;;;;4956540;28;88326;-66
2022/05/06 06:47:58;;;;;;;5.07;3.30;;;16.20;92.30;16.60;101447.00;;;;4956877;28;105925;-66
2022/05/06 06:50:25;;;;;;;7.45;3.65;;;16.50;92.00;16.80;101451.00;;;;4957487;28;106199;-67
2022/05/06 06:52:51;;;;;;;7.80;4.10;;;16.70;91.40;17.00;101453.00;;;;4950159;28;87968;-66
2022/05/06 06:55:18;;;;;;;5.50;3.42;;;16.80;90.50;17.00;101437.00;;;;4938115;28;106417;-66
2022/05/06 06:57:44;;;;;;;5.20;3.42;;;16.90;89.90;17.20;101441.00;;;;4938792;28;101141;-66
2022/05/06 07:00:11;;;;;;;4.53;3.45;;;17.00;90.00;17.50;101438.00;;;;4942082;28;87656;-67
2022/05/06 07:02:38;;;;;;;8.02;3.65;;;17.30;89.50;17.80;101440.00;;;;4956970;28;88618;-67
2022/05/06 07:05:04;;;;;;;6.20;3.70;;;17.60;88.60;18.10;101432.00;;;;4957769;28;95532;-67
2022/05/06 07:12:58;;;;;;;4.28;3.38;;;18.50;83.70;19.10;101445.00;;;;4937698;28;87813;-67
2022/05/06 07:15:24;;;;;;;6.47;3.65;;;18.90;82.40;19.40;101445.00;;;;4936826;28;118214;-67
2022/05/06 07:17:50;;;;;;;4.25;3.88;;;19.10;80.80;19.70;101448.00;;;;4936787;28;118019;-67
2022/05/06 07:20:27;;;;;;;3.35;2.95;;;19.50;79.20;20.00;101453.00;;;;4938099;28;110497;-66
2022/05/06 07:22:53;;;;;;;6.43;3.83;;;19.80;77.50;20.20;101457.00;;;;4935408;28;108415;-66
2022/05/06 07:25:19;;;;;;;7.40;3.35;;;20.00;75.10;20.20;101442.00;;;;4936627;28;119429;-66
2022/05/06 07:27:45;;;;;;;5.47;3.95;;;20.10;72.10;20.20;101458.00;;;;4936089;28;117409;-67
2022/05/06 07:30:11;;;;;;;7.13;3.80;;;20.10;70.90;20.40;101454.00;;;;4942199;28;109966;-67
2022/05/06 07:32:37;;;;;;;6.63;4.03;;;20.20;68.90;20.30;101462.00;;;;4957144;28;87801;-67
2022/05/06 07:35:04;;;;;;;4.93;3.42;;;20.20;67.70;20.20;101458.00;;;;4956953;28;88699;-67
2022/05/06 07:37:33;;;;;;;5.57;3.05;;;20.10;67.20;20.20;101460.00;;;;4954801;28;104896;-67
2022/05/06 07:40:04;;;;;;;5.70;4.05;;;20.10;67.00;20.30;101460.00;;;;4957682;28;87621;-67
2022/05/06 07:42:31;;;;;;;3.40;2.80;;;20.20;68.30;20.40;101466.00;;;;4956287;28;87762;-67
2022/05/06 07:45:00;;;;;;;4.78;3.97;;;20.20;66.80;20.50;101465.00;;;;4957015;28;87994;-67
2022/05/06 07:47:26;;;;;;;5.00;3.47;;;20.30;65.90;20.60;101459.00;;;;4949199;28;87793;-67
2022/05/06 07:49:52;;;;;;;5.05;4.07;;;20.50;63.40;20.60;101463.00;;;;4937192;28;97177;-67
2022/05/06 07:52:18;;;;;;;7.25;3.80;;;20.50;63.40;20.80;101465.00;;;;4936149;28;98040;-67
2022/05/06 07:54:44;;;;;;;4.13;3.30;;;20.60;63.70;21.00;101466.00;;;;4937024;28;88668;-67
2022/05/06 07:57:09;;;;;;;5.13;3.10;;;20.80;63.80;21.30;101471.00;;;;4936985;28;88320;-66
2022/05/06 07:59:35;;;;;;;4.60;3.42;;;21.00;63.00;21.40;101469.00;;;;4936895;28;110253;-66
2022/05/06 08:04:51;;;;;;;5.63;3.75;;;21.20;59.10;21.50;101471.00;;;;4953634;28;88202;-66
2022/05/06 08:07:17;;;;;;;5.95;3.47;;;21.30;58.50;21.70;101463.00;;;;4956732;28;88070;-66
2022/05/06 08:09:43;;;;;;;3.60;2.97;;;21.40;58.00;21.80;101473.00;;;;4942241;28;86855;-65
2022/05/06 08:12:10;;;;;;;3.53;3.10;;;21.50;58.00;21.90;101458.00;;;;4936922;28;87850;-66
2022/05/06 08:14:36;;;;;;;4.30;2.72;;;21.60;58.10;22.20;101462.00;;;;4935001;28;88333;-66
2022/05/06 08:17:03;;;;;;;8.20;2.75;;;21.90;57.90;22.50;101467.00;;;;4935287;28;110951;-66
2022/05/06 08:19:29;;;;;;;3.13;2.78;;;22.10;56.80;22.70;101462.00;;;;4945217;28;95354;-67
2022/05/06 08:21:55;;;;;;;5.07;3.17;;;22.40;56.40;22.90;101455.00;;;;4955298;28;87975;-68
2022/05/06 08:24:23;;;;;;;5.03;3.13;;;22.60;54.20;22.90;101451.00;;;;4956218;28;88625;-68
2022/05/06 08:26:49;;;;;;;2.97;2.65;;;22.60;53.20;22.90;101450.00;;;;4955353;28;106883;-70
2022/05/06 08:29:16;;;;;;;3.03;2.22;;;22.70;53.10;23.10;101459.00;;;;4954413;28;89942;-71
2022/05/06 08:31:41;;;;;;;3.47;2.88;;;22.80;53.00;23.30;101461.00;;;;4954799;28;88026;-68
2022/05/06 08:34:12;;;;;;;3.65;2.50;;;23.00;52.20;23.50;101451.00;;;;4955487;28;109665;-69
2022/05/06 08:36:43;;;;;;;2.50;2.30;;;23.10;50.60;23.50;101463.00;;;;4952692;28;88101;-69
2022/05/06 08:39:11;;;;;;;3.00;2.70;;;23.20;51.40;23.70;101454.00;;;;4955899;28;87755;-70
2022/05/06 08:41:41;;;;;;;2.85;2.10;;;23.40;51.30;24.00;101452.00;;;;4951973;28;88838;-69
2022/05/06 08:52:43;;;;;;;4.45;1.80;;;24.60;49.20;25.30;101457.00;;;;4934991;28;87994;-69
2022/05/06 08:55:09;;;;;;;5.03;1.98;;;24.90;48.20;25.50;101452.00;;;;4950684;28;88348;-71
2022/05/06 08:57:35;;;;;;;3.72;2.08;;;25.10;47.50;25.60;101450.00;;;;4937153;28;102126;-70
2022/05/06 09:00:03;;;;;;;1.80;1.70;;;25.20;46.90;25.80;101456.00;;;;4956306;28;87029;-71
2022/05/06 09:02:33;;;;;;;3.03;1.08;;;25.40;46.60;26.00;101451.00;;;;4941376;28;88905;-72
2022/05/06 09:04:58;;;;;;;2.10;1.58;;;25.60;45.90;26.30;101456.00;;;;4950067;28;117394;-70
2022/05/06 09:07:25;;;;;;;2.47;1.85;;;25.80;45.30;26.50;101450.00;;;;4935152;28;88597;-72
2022/05/06 09:10:14;;;;;;;3.40;1.35;;;26.00;44.50;26.70;101456.00;;;;4936222;28;87711;-69
2022/05/06 09:12:42;;;;;;;4.00;1.13;;;26.20;44.10;27.00;101460.00;;;;4975074;28;88175;-69
2022/05/06 09:17:55;;;;;;;1.08;0.98;;;26.70;42.60;27.40;101462.00;;;;4955261;28;87767;-69
2022/05/06 09:20:21;;;;;;;2.35;1.40;;;26.90;42.00;27.70;101465.00;;;;4956031;28;87894;-69
2022/05/06 09:22:50;;;;;;;1.90;1.15;;;27.20;42.00;27.90;101463.00;;;;4947694;28;88113;-70
2022/05/06 09:25:36;;;;;;;3.08;1.50;;;27.40;41.50;27.90;101472.00;;;;4936045;28;88324;-69
2022/05/06 09:28:07;;;;;;;3.97;1.52;;;27.50;41.60;28.00;101475.00;;;;4935743;28;89685;-70
2022/05/06 09:30:34;;;;;;;3.05;2.35;;;27.60;41.30;28.00;101475.00;;;;4951045;28;88040;-70
2022/05/06 09:33:00;;;;;;;3.28;1.98;;;27.60;41.10;27.70;101482.00;;;;4951599;28;88768;-71
2022/05/06 09:35:32;;;;;;;1.70;1.55;;;27.50;40.10;27.40;101477.00;;;;4935623;28;88791;-71
2022/05/06 09:38:03;;;;;;;2.30;1.42;;;27.30;40.20;27.20;101480.00;;;;4950475;28;88019;-70
2022/05/06 09:40:34;;;;;;;1.73;1.13;;;27.00;40.40;27.00;101474.00;;;;4952573;28;88054;-69
2022/05/06 09:43:00;;;;;;;3.03;1.50;;;26.80;40.10;26.80;101479.00;;;;4951421;28;87846;-69
2022/05/06 09:45:40;;;;;;;1.63;1.35;;;26.60;39.90;26.70;101477.00;;;;4950179;28;95002;-71
2022/05/06 09:48:14;;;;;;;1.02;0.98;;;26.50;40.20;26.60;101471.00;;;;4949354;28;87790;-69
2022/05/06 09:50:45;;;;;;;2.00;1.20;;;26.40;40.10;26.50;101474.00;;;;4952757;28;86912;-70
2022/05/06 09:53:17;;;;;;;1.70;1.42;;;26.30;40.10;26.20;101479.00;;;;4949290;28;88163;-70
2022/05/06 09:55:45;;;;;;;4.13;1.23;;;26.00;40.00;25.90;101476.00;;;;4949334;28;88038;-69
2022/05/06 09:58:13;;;;;;;2.45;1.67;;;25.80;39.90;25.60;101471.00;;;;4951199;28;88765;-69
2022/05/06 10:00:39;;;;;;;2.15;1.50;;;25.50;40.40;25.40;101476.00;;;;4950038;28;88022;-72
2022/05/06 10:03:06;;;;;;;1.48;1.17;;;25.20;40.80;25.30;101476.00;;;;4949883;28;88035;-70
2022/05/06 10:05:34;;;;;;;2.05;1.45;;;25.10;41.00;25.10;101472.00;;;;4951048;28;89255;-70
2022/05/06 10:08:16;;;;;;;1.40;1.30;;;24.90;41.50;24.90;101470.00;;;;4951203;28;88498;-69
2022/05/06 10:10:52;;;;;;;3.33;1.25;;;24.70;41.60;24.70;101463.00;;;;4952838;28;88128;-71
2022/05/06 10:13:22;;;;;;;1.83;1.30;;;24.60;41.70;24.50;101464.00;;;;4950342;28;87837;-70
2022/05/06 10:15:50;;;;;;;1.30;0.95;;;24.30;41.80;24.30;101458.00;;;;4952350;28;87203;-69
2022/05/06 10:18:35;;;;;;;2.00;1.38;;;24.10;42.00;24.00;101463.00;;;;4952696;28;88032;-71
2022/05/06 10:21:11;;;;;;;0.77;0.75;;;23.90;42.10;23.80;101457.00;;;;4955381;28;88118;-70
2022/05/06 10:23:56;;;;;;;1.05;0.95;;;23.70;42.20;23.60;101462.00;;;;4954337;28;88788;-69
2022/05/06 10:26:34;;;;;;;0.65;0.65;;;23.40;42.40;23.50;101457.00;;;;4953045;28;89987;-69
2022/05/06 10:34:32;;;;;;;1.02;0.80;;;23.30;42.60;24.30;101432.00;;;;4951303;28;87883;-72
2022/05/06 10:37:02;;;;;;;2.03;1.42;;;23.70;42.30;24.80;101426.00;;;;4952400;28;89296;-70
2022/05/06 10:39:35;;;;;;;1.00;0.60;;;24.10;40.80;25.10;101430.00;;;;4954503;28;88822;-71
2022/05/06 10:42:15;;;;;;;1.60;1.05;;;24.40;40.10;25.60;101424.00;;;;4954719;28;87050;-69
2022/05/06 10:44:50;;;;;;;2.85;1.23;;;24.80;39.70;25.80;101425.00;;;;4954289;28;87726;-69
2022/05/06 10:47:39;;;;;;;3.10;0.85;;;25.10;38.60;26.00;101429.00;;;;4952603;28;87849;-70
2022/05/06 10:50:14;;;;;;;0.77;0.77;;;25.30;38.60;26.10;101429.00;;;;4954268;28;88954;-69
2022/05/06 10:52:40;;;;;;;0.65;0.65;;;25.40;38.80;26.50;101422.00;;;;4950982;28;89112;-69
2022/05/06 10:55:07;;;;;;;0.57;0.57;;;25.60;39.00;27.00;101421.00;;;;4954095;28;87780;-69
2022/05/06 10:57:48;;;;;;;0.63;0.60;;;26.10;39.40;27.60;101427.00;;;;4950656;28;88121;-72
2022/05/06 11:00:15;;;;;;;1.02;0.80;;;26.70;39.30;28.20;101422.00;;;;4951864;28;89221;-69
2022/05/06 11:02:41;;;;;;;0.95;0.85;;;27.20;38.90;28.30;101422.00;;;;4953272;28;102543;-72
2022/05/06 11:05:10;;;;;;;0.47;0.47;;;27.60;38.30;28.30;101423.00;;;;4953390;28;88466;-70
2022/05/06 11:07:38;;;;;;;0.98;0.82;;;27.60;37.90;28.20;101427.00;;;;4952849;28;97925;-71
2022/05/06 11:10:08;;;;;;;1.42;0.88;;;27.60;38.00;27.90;101416.00;;;;4954697;28;87931;-71
2022/05/06 11:12:37;;;;;;;1.95;0.88;;;27.40;37.70;27.70;101422.00;;;;4953873;28;87714;-71
2022/05/06 11:15:06;;;;;;;1.42;0.63;;;27.20;38.00;27.30;101418.00;;;;4954077;28;88630;-70
2022/05/06 11:17:33;;;;;;;0.68;0.50;;;26.90;37.90;26.80;101423.00;;;;4950456;28;89105;-70
2022/05/06 11:20:00;;;;;;;0.50;0.50;;;26.50;37.60;26.50;101420.00;;;;4954262;28;88476;-70
2022/05/06 11:22:27;;;;;;;0.75;0.70;;;26.20;37.70;26.60;101408.00;;;;4953483;28;88106;-70
2022/05/06 11:24:56;;;;;;;1.00;0.57;;;26.10;37.00;26.60;101407.00;;;;4948168;28;87874;-69
2022/05/06 11:27:23;;;;;;;0.65;0.32;;;26.10;35.30;26.80;101408.00;;;;4950616;28;88320;-70
2022/05/06 11:29:56;;;;;;;1.27;0.93;;;26.20;35.70;26.90;101402.00;;;;4951074;28;113675;-70
2022/05/06 11:32:29;;;;;;;0.40;0.32;;;26.30;34.90;27.10;101408.00;;;;4954672;28;87342;-69
2022/05/06 11:34:59;;;;;;;0.70;0.70;;;26.50;35.00;27.70;101407.00;;;;4951393;28;104916;-70
2022/05/06 11:37:30;;;;;;;2.17;0.40;;;26.80;35.40;28.00;101416.00;;;;4952507;28;88075;-72
2022/05/06 11:42:41;;;;;;;1.30;0.40;;;27.50;35.80;28.00;101417.00;;;;4951083;28;87942;-70
2022/05/06 11:48:07;;;;;;;1.48;0.60;;;27.20;35.70;27.10;101416.00;;;;4951208;28;87938;-68